createdAt,value
2022-11-24T00:00:22.847Z,16.30
2022-11-24T00:05:24.694Z,16.30
2022-11-24T00:10:26.666Z,16.30
2022-11-24T00:15:28.482Z,16.30
2022-11-24T00:20:30.597Z,16.30
2022-11-24T00:25:32.422Z,16.20
2022-11-24T00:30:34.151Z,16.20
2022-11-24T00:35:35.796Z,16.20
2022-11-24T00:40:37.626Z,16.20
2022-11-24T00:45:39.557Z,16.20
2022-11-24T00:50:41.519Z,16.20
2022-11-24T00:55:43.438Z,16.20
2022-11-24T01:00:45.124Z,16.30
2022-11-24T01:05:46.889Z,16.30
2022-11-24T01:10:49.058Z,16.30
2022-11-24T01:15:50.914Z,16.30
2022-11-24T01:20:52.658Z,16.30
2022-11-24T01:25:54.347Z,16.30
2022-11-24T01:30:59.910Z,16.30
2022-11-24T01:36:02.061Z,16.30
2022-11-24T01:41:03.946Z,16.30
2022-11-24T01:46:18.007Z,16.30
2022-11-24T01:51:22.433Z,16.20
2022-11-24T01:56:24.255Z,16.20
2022-11-24T02:06:43.781Z,16.20
2022-11-24T02:11:46.325Z,16.10
2022-11-24T02:16:51.322Z,16.10
2022-11-24T02:21:52.965Z,16.10
2022-11-24T02:26:54.656Z,16.10
2022-11-24T02:31:58.549Z,16.00
2022-11-24T02:37:00.393Z,16.00
2022-11-24T02:42:04.249Z,16.00
2022-11-24T02:47:07.369Z,16.00
2022-11-24T02:52:09.182Z,16.00
2022-11-24T02:57:11.091Z,16.10
2022-11-24T03:02:12.793Z,16.20
2022-11-24T03:07:14.919Z,16.20
2022-11-24T03:12:16.705Z,16.20
2022-11-24T03:17:18.435Z,16.20
2022-11-24T03:22:20.106Z,16.20
2022-11-24T03:27:21.787Z,16.10
2022-11-24T03:32:23.663Z,16.10
2022-11-24T03:37:25.364Z,16.10
2022-11-24T03:42:27.177Z,16.10
2022-11-24T03:47:28.862Z,16.10
2022-11-24T03:52:30.525Z,16.10
2022-11-24T03:57:32.406Z,16.00
2022-11-24T04:02:34.343Z,16.00
2022-11-24T04:07:36.369Z,16.00
2022-11-24T04:12:44.025Z,15.90
2022-11-24T04:17:46.125Z,15.90
2022-11-24T04:22:49.692Z,15.90
2022-11-24T04:27:52.733Z,15.90
2022-11-24T04:32:54.549Z,15.90
2022-11-24T04:37:56.304Z,15.90
2022-11-24T04:42:57.971Z,16.00
2022-11-24T04:47:59.778Z,16.10
2022-11-24T04:53:01.519Z,16.10
2022-11-24T04:58:03.575Z,16.10
2022-11-24T05:03:05.318Z,16.10
2022-11-24T05:08:07.129Z,16.10
2022-11-24T05:13:12.729Z,16.10
2022-11-24T05:18:16.340Z,16.10
2022-11-24T05:23:18.048Z,16.00
2022-11-24T05:28:19.785Z,16.00
2022-11-24T05:33:23.015Z,16.00
2022-11-24T05:38:24.728Z,16.00
2022-11-24T05:43:26.370Z,15.90
2022-11-24T05:48:28.272Z,16.00
2022-11-24T05:53:29.957Z,16.10
2022-11-24T05:58:31.557Z,16.40
2022-11-24T06:03:33.511Z,16.60
2022-11-24T06:08:35.390Z,16.60
2022-11-24T06:13:37.099Z,16.70
2022-11-24T06:18:39.010Z,16.70
2022-11-24T06:23:40.662Z,16.70
2022-11-24T06:28:42.481Z,16.60
2022-11-24T06:33:44.371Z,16.60
2022-11-24T06:38:46.231Z,16.60
2022-11-24T06:43:48.039Z,16.50
2022-11-24T06:48:52.921Z,16.50
2022-11-24T06:53:54.908Z,16.40
2022-11-24T06:58:56.650Z,16.40
2022-11-24T07:03:58.846Z,16.40
2022-11-24T07:09:00.698Z,16.40
2022-11-24T07:14:02.430Z,16.30
2022-11-24T07:19:04.076Z,16.40
2022-11-24T07:24:05.905Z,16.40
2022-11-24T07:29:07.624Z,16.40
2022-11-24T07:34:09.385Z,16.30
2022-11-24T07:39:11.234Z,16.30
2022-11-24T07:44:12.902Z,16.20
2022-11-24T07:49:14.685Z,16.20
2022-11-24T07:54:16.337Z,16.20
2022-11-24T07:59:17.972Z,16.10
2022-11-24T08:04:20.124Z,16.10
2022-11-24T08:09:21.880Z,16.10
2022-11-24T08:14:23.486Z,16.00
2022-11-24T08:19:25.112Z,16.00
2022-11-24T08:24:27.217Z,16.00
2022-11-24T08:29:29.972Z,16.00
2022-11-24T08:34:31.838Z,16.00
2022-11-24T08:39:33.679Z,15.90
2022-11-24T08:44:36.192Z,15.90
2022-11-24T08:49:38.071Z,15.90
2022-11-24T08:54:40.852Z,15.90
2022-11-24T08:59:42.717Z,15.80
2022-11-24T09:04:45.678Z,15.80
2022-11-24T09:09:47.445Z,15.90
2022-11-24T09:14:48.996Z,16.00
2022-11-24T09:19:50.895Z,16.00
2022-11-24T09:24:52.617Z,16.10
2022-11-24T09:29:54.406Z,16.10
2022-11-24T09:34:55.996Z,16.10
2022-11-24T09:39:57.667Z,16.10
2022-11-24T09:45:09.450Z,16.10
2022-11-24T09:50:17.150Z,16.10
2022-11-24T09:55:25.630Z,16.10
2022-11-24T10:00:27.330Z,16.10
2022-11-24T10:05:30.843Z,16.00
2022-11-24T10:10:43.491Z,16.00
2022-11-24T10:15:49.751Z,16.00
2022-11-24T10:21:10.179Z,16.00
2022-11-24T10:26:28.875Z,16.00
2022-11-24T10:31:39.090Z,16.00
2022-11-24T10:36:48.266Z,16.00
2022-11-24T10:41:59.143Z,16.00
2022-11-24T10:47:00.822Z,16.00
2022-11-24T10:52:07.130Z,16.00
2022-11-24T10:57:09.010Z,16.00
2022-11-24T11:02:30.748Z,15.90
2022-11-24T11:07:32.500Z,15.90
2022-11-24T11:12:43.984Z,15.90
2022-11-24T11:17:46.395Z,15.90
2022-11-24T11:22:49.754Z,15.90
2022-11-24T11:27:51.407Z,15.90
2022-11-24T11:38:16.123Z,15.90
2022-11-24T11:43:17.723Z,15.90
2022-11-24T11:48:46.792Z,15.90
2022-11-24T11:54:03.640Z,15.90
2022-11-24T11:59:11.200Z,15.90
2022-11-24T12:04:16.027Z,15.90
2022-11-24T12:09:24.362Z,15.90
2022-11-24T12:14:31.487Z,15.90
2022-11-24T12:19:59.851Z,15.90
2022-11-24T12:25:20.754Z,15.90
2022-11-24T12:30:22.754Z,15.90
2022-11-24T12:35:33.760Z,15.90
2022-11-24T12:40:46.443Z,15.90
2022-11-24T12:45:58.052Z,15.90
2022-11-24T12:51:00.311Z,15.90
2022-11-24T12:56:06.314Z,16.00
2022-11-24T13:01:23.528Z,16.00
2022-11-24T13:06:49.100Z,16.00
2022-11-24T13:12:04.998Z,16.00
2022-11-24T13:17:36.012Z,16.00
2022-11-24T13:22:45.616Z,16.00
2022-11-24T13:27:48.736Z,16.00
2022-11-24T13:32:59.502Z,16.00
2022-11-24T13:38:01.086Z,15.90
2022-11-24T13:43:02.787Z,15.90
2022-11-24T13:48:20.211Z,15.90
2022-11-24T13:53:29.079Z,15.90
2022-11-24T13:58:34.041Z,15.90
2022-11-24T14:03:35.719Z,15.90
2022-11-24T14:08:38.128Z,15.80
2022-11-24T14:13:39.785Z,15.80
2022-11-24T14:18:42.745Z,15.80
2022-11-24T14:23:45.572Z,15.80
2022-11-24T14:28:47.549Z,15.80
2022-11-24T14:33:49.747Z,15.80
2022-11-24T14:38:51.386Z,15.80
2022-11-24T14:44:11.480Z,15.70
2022-11-24T14:49:21.130Z,15.70
2022-11-24T14:54:23.552Z,15.70
2022-11-24T14:59:26.068Z,15.70
2022-11-24T15:09:52.920Z,15.70
2022-11-24T15:14:56.736Z,15.70
2022-11-24T15:20:00.944Z,15.80
2022-11-24T15:25:02.937Z,15.90
2022-11-24T15:30:04.915Z,15.90
2022-11-24T15:35:10.225Z,15.90
2022-11-24T15:40:12.445Z,15.90
2022-11-24T15:45:14.161Z,15.90
2022-11-24T15:50:15.890Z,15.80
2022-11-24T15:55:18.957Z,15.80
2022-11-24T16:00:22.092Z,15.80
2022-11-24T16:05:23.749Z,15.80
2022-11-24T16:10:29.923Z,15.80
2022-11-24T16:15:31.648Z,15.80
2022-11-24T16:20:35.799Z,15.90
2022-11-24T16:25:37.426Z,16.20
2022-11-24T16:30:39.060Z,16.50
2022-11-24T16:35:40.748Z,16.80
2022-11-24T16:40:42.612Z,17.10
2022-11-24T16:45:45.710Z,17.40
2022-11-24T16:50:47.590Z,17.60
2022-11-24T16:55:56.429Z,17.70
2022-11-24T17:01:08.450Z,17.80
2022-11-24T17:06:11.603Z,17.90
2022-11-24T17:11:14.765Z,17.90
2022-11-24T17:16:17.697Z,17.90
2022-11-24T17:21:23.114Z,18.10
2022-11-24T17:26:25.494Z,18.40
2022-11-24T17:31:28.876Z,18.60
2022-11-24T17:36:31.491Z,18.60
2022-11-24T17:41:33.543Z,18.50
2022-11-24T17:46:35.688Z,18.40
2022-11-24T17:51:37.436Z,18.40
2022-11-24T17:56:40.690Z,18.30
2022-11-24T18:01:42.753Z,18.30
2022-11-24T18:06:44.642Z,18.30
2022-11-24T18:11:47.874Z,18.20
2022-11-24T18:16:50.457Z,18.20
2022-11-24T18:21:52.342Z,18.20
2022-11-24T18:26:53.972Z,18.30
2022-11-24T18:31:55.801Z,18.30
2022-11-24T18:36:57.519Z,18.30
2022-11-24T18:41:59.656Z,18.20
2022-11-24T18:47:01.444Z,18.20
2022-11-24T18:52:03.232Z,18.30
2022-11-24T18:57:04.902Z,18.30
2022-11-24T19:02:06.700Z,18.20
2022-11-24T19:07:08.639Z,18.10
2022-11-24T19:12:10.599Z,18.10
2022-11-24T19:17:12.843Z,18.20
2022-11-24T19:22:15.779Z,18.30
2022-11-24T19:27:18.559Z,18.20
2022-11-24T19:32:20.877Z,18.20
2022-11-24T19:37:23.467Z,18.10
2022-11-24T19:42:25.186Z,18.10
2022-11-24T19:47:27.852Z,18.20
2022-11-24T19:52:29.901Z,18.30
2022-11-24T19:57:31.438Z,18.30
2022-11-24T20:02:33.092Z,18.30
2022-11-24T20:07:34.913Z,18.20
2022-11-24T20:12:36.614Z,18.20
2022-11-24T20:17:38.175Z,18.10
2022-11-24T20:22:39.838Z,18.00
2022-11-24T20:27:41.538Z,18.00
2022-11-24T20:32:43.791Z,17.90
2022-11-24T20:37:45.455Z,17.80
2022-11-24T20:42:49.930Z,17.70
2022-11-24T20:47:51.570Z,17.70
2022-11-24T20:52:53.340Z,17.60
2022-11-24T20:57:55.088Z,17.60
2022-11-24T21:02:58.210Z,17.50
2022-11-24T21:08:00.064Z,17.50
2022-11-24T21:13:03.547Z,17.40
2022-11-24T21:18:05.734Z,17.30
2022-11-24T21:23:07.361Z,17.30
2022-11-24T21:28:09.455Z,17.20
2022-11-24T21:33:11.638Z,17.20
2022-11-24T21:38:13.850Z,17.10
2022-11-24T21:43:15.395Z,17.10
2022-11-24T21:48:16.984Z,17.00
2022-11-24T21:53:18.781Z,17.00
2022-11-24T21:58:20.834Z,16.90
2022-11-24T22:03:22.526Z,16.90
2022-11-24T22:08:24.645Z,16.80
2022-11-24T22:13:26.279Z,16.80
2022-11-24T22:18:30.242Z,16.80
2022-11-24T22:23:32.486Z,16.80
2022-11-24T22:28:35.425Z,16.80
2022-11-24T22:33:37.226Z,16.80
2022-11-24T22:38:38.870Z,16.80
2022-11-24T22:43:41.035Z,16.80
2022-11-24T22:48:43.974Z,16.70
2022-11-24T22:53:49.771Z,16.70
2022-11-24T22:58:51.610Z,16.70
2022-11-24T23:03:54.570Z,16.70
2022-11-24T23:08:57.170Z,16.70
2022-11-24T23:14:01.892Z,16.70
2022-11-24T23:19:03.874Z,16.60
2022-11-24T23:24:05.945Z,16.60
2022-11-24T23:29:08.180Z,16.60
2022-11-24T23:34:10.008Z,16.60
2022-11-24T23:39:12.655Z,16.60
2022-11-24T23:44:14.314Z,16.60
2022-11-24T23:49:16.017Z,16.50
2022-11-24T23:54:17.645Z,16.50
2022-11-24T23:59:19.836Z,16.50
